View Sortable Currents For Network
ASOSAWOSCoCoRaHSCOOPDCPISUSM
SchoolNetOtherSCANMy FavoritesBy StateRWIS
RWIS SurfaceRWIS TrafficRWIS SoilBy NWS WFOUSCRN
ADD: Station: Ob Time Temps °F     Wind [knots] Precip
Air (Hi / Lo) DewP Feels RH% Vis Speed Direction Gust @Time Accum [1]
Victor09:36 AM 24.98(24.98/16.88) -39.64 16 4 0 7G8 134 23@ 01:06 AM 0
Des Moines (I-35)09:36 AM 26.06(26.78/18.86) 24.98 26 96 0 2G4 25 15@ 02:16 AM 0
Ankeny (I-35)09:36 AM 25.7(25.7/18.32) 24.98 22 97 1.2 3G5 85 25@ 03:36 AM 0
De Witt (US 30/US 61)09:36 AM 22.82(22.82/13.82) 22.82 16 100 0 4G9 145 16@ 12:25 AM 0
Dubuque (US 20)09:36 AM 20.84(20.84/14.54) 20.48 21 98 0 1G3 155 9@ 01:26 AM 0
Denison09:35 AM 21.38(23/20.48) 20.3 21 96 0.1 0 160 0@ 06:00 PM 0
Hawkeye09:35 AM 19.04(19.04/13.46) 16.52 8 90 0 9G12 140 30@ 01:16 AM 0
Saratoga09:35 AM 17.06(17.06/12.74) 15.26 8 92 0 6G8 115 27@ 12:35 AM 0
Ottumwa (US 63)09:34 AM 29.3(29.3/19.22) 26.24 23 88 0.1 5G10 130 19@ 06:43 AM 0
Steamboat Rock (US20)09:34 AM 23.18(23.18/15.26) 21.74 17 94 0 4G6 135 26@ 12:04 AM 0
Osceola (I-35)09:34 AM 30.38(30.38/19.04) 30.2 30 99 0 0 0 25@ 03:44 AM 0
Urbana (I-380)09:34 AM 22.46(22.46/12.74) 21.92 15 98 0.1 5G8 115 18@ 12:15 AM 0
Red Oak (US 34/US 71)09:34 AM 29.48(29.84/22.28) 29.48 29 100 0 1G2 0 13@ 01:54 AM 0
Mount Pleasant (US 218)09:33 AM 29.12(29.12/19.22) 22.82 24 77 0 4G10 135 18@ 06:23 AM 0
Manchester (US 20)09:33 AM 20.48(20.48/12.74) 18.5 16 92 0 3G6 155 16@ 12:43 AM 0
Maquoketa (US 61/IA 64)09:33 AM 23.18(23.18/13.64) 21.2 15 92 0 6G9 145 16@ 12:53 AM 0
Missouri Valley (I-29)09:33 AM 23.54(26.6/23.54) 14 0 0.1 8G12 340 21@ 12:03 AM 0
Marshalltown (US 30)09:33 AM 24.8(24.8/16.52) 23.9 20 96 0 3G6 120 26@ 01:13 AM 0
Sloan I-2909:33 AM 21.92(22.82/21.02) 20.48 11 94 0.1 10G14 20 17@ 09:03 AM 0
Fort Dodge (US 20)09:32 AM 22.46(22.46/18.5) 19.94 15 90 1.3 5G5 75 24@ 12:52 AM 0
Iowa City (I-80)09:32 AM (/) 0 0 0 0 361 0@ 06:00 PM 0
Grinnell (I-80)09:32 AM 26.06(26.06/17.24) 25.34 19 97 0.1 5G7 125 26@ 01:02 AM 0
Sidney (I-29/IA 2)09:32 AM 28.04(31.82/25.7) 27.68 17 99 0 12G15 15 28@ 12:32 AM 0
Leon (I-35)/IA 2)09:32 AM 31.64(31.64/20.66) 30.56 32 96 0 2G6 155 18@ 04:03 AM 0
Jefferson (IA 4)09:32 AM 23.54(23.9/19.94) 22.82 17 97 1.3 4G6 20 18@ 12:33 AM 0
Des Moines (I-235)09:32 AM 26.78(26.78/19.76) 25.7 27 96 0 0 361 0@ 06:00 PM 0
Iowa City (US 218)09:32 AM 24.62(24.62/15.62) 24.62 15 100 0 9G13 135 19@ 12:52 AM 0
Decorah (IA 9)09:31 AM 43.16(43.16/41) 42.26 40 97 0.8 5G8 110 21@ 03:32 AM 0
Davenport (I-80/I-280)09:31 AM 25.16(25.16/15.26) 21.2 16 85 0 7G10 0 23@ 04:02 AM 0
Spencer (US 18)09:31 AM (/) 0 0 1.2 3G6 355 17@ 12:01 AM 0
Storm Lake (US 71/IA 3)09:31 AM 19.4(19.4/17.24) 18.14 10 95 0.1 6G6 355 22@ 12:01 AM 0
Pella (IA 163)09:31 AM 26.96(26.96/17.78) 25.34 27 94 0 0 95 0@ 06:00 PM 0
Sigourney (IA 92)09:30 AM (/) 0 0 0 6G9 135 24@ 02:10 AM 0
Algona (US 18)09:30 AM 19.76(20.12/15.26) 19.04 10 97 0 6G8 15 25@ 01:10 AM 0
Altoona (I-80/US 65)09:30 AM 27.14(27.14/18.86) 25.52 23 94 1.5 3G5 90 24@ 12:50 AM 0
Eddyville09:30 AM 27.68(27.68/18.86) 25.7 24 92 0.1 3G5 130 24@ 01:30 AM 0
Colfax - I-8009:30 AM 25.88(25.88/19.04) 25.52 20 99 0.1 4G5 120 21@ 12:10 AM 0
Quad Cities09:30 AM 24.62(24.62/15.08) 23.54 17 96 0.4 5G10 145 18@ 04:10 AM 0
Centerville (IA 2)09:30 AM 31.28(31.28/17.78) 29.84 26 94 0 5G11 170 18@ 05:00 AM 0
Plainfield09:30 AM 20.3(20.3/14.54) -4.72 13 32 7.1 5G7 160 23@ 02:00 AM 0
Rockwell City09:30 AM 20.84(20.84/17.6) 0 0 0 5G6 85 29@ 12:10 AM 0
Cantril09:30 AM 29.3(29.3/20.3) 17.42 21 61 0 7G11 0 17@ 02:50 AM 0
Cedar Rapids (I-380)09:30 AM 23.9(23.9/14.72) 22.1 16 93 0.2 5G10 90 21@ 03:30 AM 0
Alton (IA10)09:30 AM 19.76(19.76/18.32) 18.5 9 95 0 9G11 345 16@ 12:00 AM 0
Adair (I-80)09:30 AM 25.7(27.86/19.22) 24.08 17 93 0.1 7G9 25 25@ 12:00 AM 0
Hanlontown (I-35)09:30 AM 18.5(18.5/13.1) 17.42 19 95 0 0 110 24@ 12:30 AM 0
Elkhart I-35 No109:30 AM (/) 0 0 1.2 0 361 0@ 06:00 PM 0
Tipton (I-80)09:30 AM 25.52(25.52/13.82) 20.48 21 81 0.9 3G11 155 15@ 06:10 AM 0
Cedar Rapids (US 30)09:30 AM 23.9(23.9/14.9) 22.28 17 93 0.1 5G9 55 19@ 12:50 AM 0
Carroll (US 30)09:30 AM 22.64(22.64/19.22) 21.74 17 96 0 4G7 20 23@ 12:50 AM 0
Waterloo (US 20)09:30 AM 22.82(22.82/13.28) 22.82 16 100 0 5G7 155 20@ 03:10 AM 0
Mason City (I-35)09:30 AM 18.32(18.32/12.56) 16.34 10 92 0.1 5G6 85 26@ 12:10 AM 0
Avoca (I-80)09:30 AM 24.62(28.22/21.74) 11.3 7 56 0.1 27G44 10 50@ 08:40 AM 0
Moville09:30 AM 21.56(21.74/21.02) 21.56 10 100 0 10G14 50 14@ 09:30 AM 0
Council Bluffs (I-80)09:30 AM 24.62(29.66/24.62) 24.44 12 99 0 12G16 165 16@ 01:00 AM 0
Creston (US 34)09:30 AM 29.48(29.48/19.76) 27.86 25 94 0 4G5 60 26@ 12:40 AM 0
Burlington (US 34)09:30 AM 30.2(30.2/20.3) 27.68 23 90 0 6G15 175 18@ 02:30 AM 0
Williams (I-35)09:30 AM 22.64(22.64/16.52) 21.02 15 93 0 5G6 130 28@ 12:30 AM 0
Williamsburg (I-80)09:30 AM 25.7(25.7/17.6) 24.62 17 96 0 7G10 130 24@ 02:00 AM 0
Elkhart I-35 No209:30 AM (/) 0 0 1.2 0 361 0@ 06:00 PM 0
New Hampton (US 18)09:30 AM 19.22(19.22/13.46) 17.24 15 92 4.3 3G4 45 24@ 12:10 AM 0
Ames (I-35)09:30 AM 24.26(24.26/17.78) 23.54 18 97 0.1 4G5 90 23@ 02:30 AM 0
Tama09:30 AM 24.44(24.44/17.06) -90.4 18 0 7.1 4G8 135 23@ 12:30 AM 0
Cambridge I-3509:30 AM (/) 0 0 1.2 0 361 0@ 06:00 PM 0
Council Bluffs No209:30 AM 25.34(29.12/23) 24.08 25 95 0 0 361 0@ 06:00 PM 0
Anamosa (US 151)09:30 AM 23.18(23.18/12.56) 22.46 12 97 1.2 9G16 135 24@ 01:10 AM 0
Ida Grove (US 59)09:30 AM 21.2(21.38/20.3) 19.22 14 92 0 4G6 345 15@ 12:00 AM 0
Sibley09:30 AM 17.06(17.06/15.44) 6.8 7 63 0.2 6G9 350 17@ 12:50 AM 0
Estherville - Hwy 909:30 AM 16.7(17.78/14.9) 16.34 5 98 0 8G9 10 18@ 12:00 AM 0
BedfordJan-21-2019Site Offline
De Soto (I-80/US 169)Jan-20-2019Site Offline


Notes:
1 Not all sites have the ability to measure precip nor visibility.
2 The Iowa City (I-80) RWIS site does not have atmospheric sensors on it , so it is not included on this page.